sensor_id;sensor_type;location;lat;lon;timestamp;pressure;altitude;pressure_sealevel;temperature;humidity
9009;BME280;62813;51.424;6.762;2023-03-24T00:00:12;99841.53;;;12.15;91.11
9009;BME280;62813;51.424;6.762;2023-03-24T00:02:41;99838.09;;;12.14;91.16
9009;BME280;62813;51.424;6.762;2023-03-24T00:05:10;99836.22;;;12.16;91.19
9009;BME280;62813;51.424;6.762;2023-03-24T00:07:37;99833.50;;;12.18;91.10
9009;BME280;62813;51.424;6.762;2023-03-24T00:10:11;99827.47;;;12.17;91.59
9009;BME280;62813;51.424;6.762;2023-03-24T00:12:38;99821.44;;;12.17;91.66
9009;BME280;62813;51.424;6.762;2023-03-24T00:15:06;99819.50;;;12.20;91.83
9009;BME280;62813;51.424;6.762;2023-03-24T00:17:34;99813.47;;;12.20;91.84
9009;BME280;62813;51.424;6.762;2023-03-24T00:20:05;99815.31;;;12.18;91.79
9009;BME280;62813;51.424;6.762;2023-03-24T00:22:45;99805.09;;;12.15;91.80
9009;BME280;62813;51.424;6.762;2023-03-24T00:25:17;99802.59;;;12.13;91.99
9009;BME280;62813;51.424;6.762;2023-03-24T00:27:45;99794.69;;;12.15;92.54
9009;BME280;62813;51.424;6.762;2023-03-24T00:30:16;99788.75;;;12.13;92.63
9009;BME280;62813;51.424;6.762;2023-03-24T00:32:43;99785.94;;;12.16;92.93
9009;BME280;62813;51.424;6.762;2023-03-24T00:35:13;99780.84;;;12.14;92.58
9009;BME280;62813;51.424;6.762;2023-03-24T00:37:42;99775.75;;;12.13;92.79
9009;BME280;62813;51.424;6.762;2023-03-24T00:40:15;99780.13;;;12.12;92.74
9009;BME280;62813;51.424;6.762;2023-03-24T00:42:44;99777.59;;;12.11;92.65
9009;BME280;62813;51.424;6.762;2023-03-24T00:45:15;99759.31;;;12.12;92.65
9009;BME280;62813;51.424;6.762;2023-03-24T00:47:43;99757.81;;;12.08;92.44
9009;BME280;62813;51.424;6.762;2023-03-24T00:50:13;99754.28;;;12.09;92.55
9009;BME280;62813;51.424;6.762;2023-03-24T00:52:41;99756.78;;;12.11;92.42
9009;BME280;62813;51.424;6.762;2023-03-24T00:55:11;99755.78;;;12.13;92.64
9009;BME280;62813;51.424;6.762;2023-03-24T00:57:45;99755.03;;;12.11;93.18
9009;BME280;62813;51.424;6.762;2023-03-24T01:00:21;99742.00;;;12.11;92.63
9009;BME280;62813;51.424;6.762;2023-03-24T01:02:51;99739.50;;;12.10;92.56
9009;BME280;62813;51.424;6.762;2023-03-24T01:05:25;99734.03;;;12.14;92.72
9009;BME280;62813;51.424;6.762;2023-03-24T01:07:58;99734.13;;;12.13;92.96
9009;BME280;62813;51.424;6.762;2023-03-24T01:10:39;99736.81;;;12.11;93.10
9009;BME280;62813;51.424;6.762;2023-03-24T01:13:17;99733.94;;;12.16;93.09
9009;BME280;62813;51.424;6.762;2023-03-24T01:15:44;99732.38;;;12.13;93.33
9009;BME280;62813;51.424;6.762;2023-03-24T01:18:11;99727.28;;;12.12;93.37
9009;BME280;62813;51.424;6.762;2023-03-24T01:20:45;99726.41;;;12.11;93.41
9009;BME280;62813;51.424;6.762;2023-03-24T01:23:15;99729.00;;;12.11;93.69
9009;BME280;62813;51.424;6.762;2023-03-24T01:25:42;99723.81;;;12.11;93.90
9009;BME280;62813;51.424;6.762;2023-03-24T01:28:11;99715.47;;;12.06;94.26
9009;BME280;62813;51.424;6.762;2023-03-24T01:30:39;99706.91;;;12.04;94.13
9009;BME280;62813;51.424;6.762;2023-03-24T01:33:06;99714.44;;;12.09;94.22
9009;BME280;62813;51.424;6.762;2023-03-24T01:35:33;99706.63;;;12.09;94.11
9009;BME280;62813;51.424;6.762;2023-03-24T01:38:04;99702.47;;;12.06;94.13
9009;BME280;62813;51.424;6.762;2023-03-24T01:40:33;99695.50;;;12.07;94.29
9009;BME280;62813;51.424;6.762;2023-03-24T01:43:00;99692.06;;;12.06;94.62
9009;BME280;62813;51.424;6.762;2023-03-24T01:48:59;99670.44;;;12.06;94.37
9009;BME280;62813;51.424;6.762;2023-03-24T01:51:38;99681.56;;;12.08;94.37
9009;BME280;62813;51.424;6.762;2023-03-24T01:54:38;99684.78;;;12.11;94.09
9009;BME280;62813;51.424;6.762;2023-03-24T01:59:46;99665.47;;;12.15;94.59
9009;BME280;62813;51.424;6.762;2023-03-24T02:02:14;99657.03;;;12.12;94.48
9009;BME280;62813;51.424;6.762;2023-03-24T02:04:45;99657.88;;;12.12;94.61
9009;BME280;62813;51.424;6.762;2023-03-24T02:07:40;99647.97;;;12.17;94.13
9009;BME280;62813;51.424;6.762;2023-03-24T02:10:10;99640.38;;;12.14;94.57
9009;BME280;62813;51.424;6.762;2023-03-24T02:12:40;99643.59;;;12.18;94.65
9009;BME280;62813;51.424;6.762;2023-03-24T02:15:08;99636.56;;;12.20;94.25
9009;BME280;62813;51.424;6.762;2023-03-24T02:23:37;99617.38;;;12.08;95.89
9009;BME280;62813;51.424;6.762;2023-03-24T02:26:20;99612.16;;;12.08;96.05
9009;BME280;62813;51.424;6.762;2023-03-24T02:32:21;99604.16;;;12.11;95.67
9009;BME280;62813;51.424;6.762;2023-03-24T02:51:39;99585.75;;;12.14;96.14
9009;BME280;62813;51.424;6.762;2023-03-24T02:54:26;99589.91;;;12.17;95.71
9009;BME280;62813;51.424;6.762;2023-03-24T02:56:59;99584.41;;;12.21;95.46
9009;BME280;62813;51.424;6.762;2023-03-24T03:02:15;99576.63;;;12.21;95.23
9009;BME280;62813;51.424;6.762;2023-03-24T03:04:46;99574.00;;;12.21;95.02
9009;BME280;62813;51.424;6.762;2023-03-24T03:07:18;99572.03;;;12.25;94.97
9009;BME280;62813;51.424;6.762;2023-03-24T03:10:00;99574.63;;;12.25;94.83
9009;BME280;62813;51.424;6.762;2023-03-24T03:12:32;99574.44;;;12.28;94.68
9009;BME280;62813;51.424;6.762;2023-03-24T03:15:03;99570.69;;;12.32;94.17
9009;BME280;62813;51.424;6.762;2023-03-24T03:17:37;99579.03;;;12.37;93.47
9009;BME280;62813;51.424;6.762;2023-03-24T03:20:12;99564.13;;;12.39;93.33
9009;BME280;62813;51.424;6.762;2023-03-24T03:22:47;99573.31;;;12.45;93.04
9009;BME280;62813;51.424;6.762;2023-03-24T03:25:19;99567.72;;;12.51;92.82
9009;BME280;62813;51.424;6.762;2023-03-24T03:27:50;99569.06;;;12.57;92.10
9009;BME280;62813;51.424;6.762;2023-03-24T03:30:27;99561.69;;;12.63;91.26
9009;BME280;62813;51.424;6.762;2023-03-24T03:33:00;99563.94;;;12.68;91.25
9009;BME280;62813;51.424;6.762;2023-03-24T03:35:34;99558.97;;;12.77;89.92
9009;BME280;62813;51.424;6.762;2023-03-24T03:38:10;99553.94;;;12.87;89.14
9009;BME280;62813;51.424;6.762;2023-03-24T03:40:49;99573.53;;;12.93;88.75
9009;BME280;62813;51.424;6.762;2023-03-24T03:43:17;99566.34;;;12.96;88.88
9009;BME280;62813;51.424;6.762;2023-03-24T03:45:44;99567.91;;;12.99;88.66
9009;BME280;62813;51.424;6.762;2023-03-24T03:48:12;99561.97;;;12.97;88.24
9009;BME280;62813;51.424;6.762;2023-03-24T03:50:39;99570.38;;;13.00;88.18
9009;BME280;62813;51.424;6.762;2023-03-24T03:53:06;99566.84;;;13.01;87.85
9009;BME280;62813;51.424;6.762;2023-03-24T03:55:34;99570.38;;;13.00;87.93
9009;BME280;62813;51.424;6.762;2023-03-24T03:58:02;99583.28;;;13.02;88.34
9009;BME280;62813;51.424;6.762;2023-03-24T04:00:30;99592.69;;;13.04;88.30
9009;BME280;62813;51.424;6.762;2023-03-24T04:06:17;99607.78;;;12.99;88.89
9009;BME280;62813;51.424;6.762;2023-03-24T04:08:55;99607.91;;;12.98;90.25
9009;BME280;62813;51.424;6.762;2023-03-24T04:11:35;99610.00;;;12.93;91.18
9009;BME280;62813;51.424;6.762;2023-03-24T04:22:20;99621.47;;;12.77;91.03
9009;BME280;62813;51.424;6.762;2023-03-24T04:27:46;99637.09;;;12.77;90.46
9009;BME280;62813;51.424;6.762;2023-03-24T04:36:13;99644.38;;;12.72;91.56
9009;BME280;62813;51.424;6.762;2023-03-24T04:38:47;99658.31;;;12.71;90.92
9009;BME280;62813;51.424;6.762;2023-03-24T04:41:17;99655.72;;;12.71;91.01
9009;BME280;62813;51.424;6.762;2023-03-24T04:43:49;99669.78;;;12.69;90.98
9009;BME280;62813;51.424;6.762;2023-03-24T04:46:16;99675.06;;;12.67;91.24
9009;BME280;62813;51.424;6.762;2023-03-24T04:48:46;99699.56;;;12.65;90.80
9009;BME280;62813;51.424;6.762;2023-03-24T04:51:17;99694.22;;;12.66;89.78
9009;BME280;62813;51.424;6.762;2023-03-24T04:53:45;99693.50;;;12.64;89.90
9009;BME280;62813;51.424;6.762;2023-03-24T04:56:32;99711.53;;;12.67;88.62
9009;BME280;62813;51.424;6.762;2023-03-24T04:59:01;99715.28;;;12.63;88.73
9009;BME280;62813;51.424;6.762;2023-03-24T05:01:28;99731.84;;;12.62;87.42
9009;BME280;62813;51.424;6.762;2023-03-24T05:03:57;99720.88;;;12.57;84.78
9009;BME280;62813;51.424;6.762;2023-03-24T05:06:24;99740.34;;;12.51;83.42
9009;BME280;62813;51.424;6.762;2023-03-24T05:08:53;99743.22;;;12.47;82.03
9009;BME280;62813;51.424;6.762;2023-03-24T05:11:23;99759.00;;;12.44;80.56
9009;BME280;62813;51.424;6.762;2023-03-24T05:13:50;99764.81;;;12.35;79.99
9009;BME280;62813;51.424;6.762;2023-03-24T05:16:17;99760.56;;;12.34;80.17
9009;BME280;62813;51.424;6.762;2023-03-24T05:18:44;99754.81;;;12.29;79.91
9009;BME280;62813;51.424;6.762;2023-03-24T05:21:11;99770.78;;;12.22;79.77
9009;BME280;62813;51.424;6.762;2023-03-24T05:23:40;99785.84;;;12.17;78.81
9009;BME280;62813;51.424;6.762;2023-03-24T05:26:07;99789.03;;;12.08;78.56
9009;BME280;62813;51.424;6.762;2023-03-24T05:28:34;99804.19;;;12.02;78.07
9009;BME280;62813;51.424;6.762;2023-03-24T05:31:01;99799.19;;;11.98;78.14
9009;BME280;62813;51.424;6.762;2023-03-24T05:33:28;99812.56;;;11.92;78.19
9009;BME280;62813;51.424;6.762;2023-03-24T05:35:55;99829.47;;;11.85;78.53
9009;BME280;62813;51.424;6.762;2023-03-24T05:38:22;99834.66;;;11.85;78.16
9009;BME280;62813;51.424;6.762;2023-03-24T05:40:49;99846.91;;;11.83;78.24
9009;BME280;62813;51.424;6.762;2023-03-24T05:43:15;99839.03;;;11.85;78.36
9009;BME280;62813;51.424;6.762;2023-03-24T05:45:42;99844.78;;;11.76;78.04
9009;BME280;62813;51.424;6.762;2023-03-24T05:48:09;99852.28;;;11.66;77.50
9009;BME280;62813;51.424;6.762;2023-03-24T05:50:36;99860.94;;;11.66;77.47
9009;BME280;62813;51.424;6.762;2023-03-24T05:53:03;99868.16;;;11.61;77.32
9009;BME280;62813;51.424;6.762;2023-03-24T05:55:29;99884.78;;;11.59;77.24
9009;BME280;62813;51.424;6.762;2023-03-24T05:57:57;99867.41;;;11.59;76.55
9009;BME280;62813;51.424;6.762;2023-03-24T06:00:31;99873.53;;;11.58;76.38
9009;BME280;62813;51.424;6.762;2023-03-24T06:02:59;99886.63;;;11.57;75.75
9009;BME280;62813;51.424;6.762;2023-03-24T06:05:27;99884.59;;;11.62;76.14
9009;BME280;62813;51.424;6.762;2023-03-24T06:07:54;99887.38;;;11.59;76.41
9009;BME280;62813;51.424;6.762;2023-03-24T06:10:25;99900.38;;;11.59;75.92
9009;BME280;62813;51.424;6.762;2023-03-24T06:12:53;99901.78;;;11.64;75.83
9009;BME280;62813;51.424;6.762;2023-03-24T06:15:22;99893.44;;;11.74;75.59
9009;BME280;62813;51.424;6.762;2023-03-24T06:17:53;99903.56;;;11.78;75.48
9009;BME280;62813;51.424;6.762;2023-03-24T06:20:21;99897.59;;;11.76;75.56
9009;BME280;62813;51.424;6.762;2023-03-24T06:22:48;99904.56;;;11.76;75.42
9009;BME280;62813;51.424;6.762;2023-03-24T06:25:16;99898.38;;;11.78;75.45
9009;BME280;62813;51.424;6.762;2023-03-24T06:27:48;99907.38;;;11.73;75.56
9009;BME280;62813;51.424;6.762;2023-03-24T06:30:16;99910.16;;;11.69;76.33
9009;BME280;62813;51.424;6.762;2023-03-24T06:32:43;99906.69;;;11.69;76.15
9009;BME280;62813;51.424;6.762;2023-03-24T06:35:14;99920.56;;;11.69;76.41
9009;BME280;62813;51.424;6.762;2023-03-24T06:37:41;99914.97;;;11.76;76.46
9009;BME280;62813;51.424;6.762;2023-03-24T06:40:08;99919.72;;;11.83;76.71
9009;BME280;62813;51.424;6.762;2023-03-24T06:42:41;99934.47;;;11.83;76.79
9009;BME280;62813;51.424;6.762;2023-03-24T06:45:08;99939.88;;;11.80;77.01
9009;BME280;62813;51.424;6.762;2023-03-24T06:47:35;99937.63;;;11.74;75.39
9009;BME280;62813;51.424;6.762;2023-03-24T06:50:02;99931.59;;;11.73;74.19
9009;BME280;62813;51.424;6.762;2023-03-24T06:52:29;99942.91;;;11.72;73.76
9009;BME280;62813;51.424;6.762;2023-03-24T06:54:56;99936.59;;;11.76;73.23
9009;BME280;62813;51.424;6.762;2023-03-24T06:57:23;99925.78;;;11.84;72.92
9009;BME280;62813;51.424;6.762;2023-03-24T06:59:50;99934.41;;;11.84;73.15
9009;BME280;62813;51.424;6.762;2023-03-24T07:02:16;99932.53;;;11.86;72.88
9009;BME280;62813;51.424;6.762;2023-03-24T07:04:43;99936.19;;;11.84;72.80
9009;BME280;62813;51.424;6.762;2023-03-24T07:07:11;99943.41;;;11.79;73.21
9009;BME280;62813;51.424;6.762;2023-03-24T07:09:58;99933.41;;;12.01;73.87
9009;BME280;62813;51.424;6.762;2023-03-24T07:12:25;99926.78;;;12.10;73.73
9009;BME280;62813;51.424;6.762;2023-03-24T07:14:51;99940.47;;;12.28;73.06
9009;BME280;62813;51.424;6.762;2023-03-24T07:17:18;99924.09;;;12.25;72.77
9009;BME280;62813;51.424;6.762;2023-03-24T07:19:45;99928.75;;;12.35;71.85
9009;BME280;62813;51.424;6.762;2023-03-24T07:22:12;99927.81;;;12.36;71.44
9009;BME280;62813;51.424;6.762;2023-03-24T07:24:39;99939.25;;;12.47;71.27
9009;BME280;62813;51.424;6.762;2023-03-24T07:27:06;99945.03;;;12.52;70.23
9009;BME280;62813;51.424;6.762;2023-03-24T07:29:33;99945.69;;;12.56;71.68
9009;BME280;62813;51.424;6.762;2023-03-24T07:32:00;99955.34;;;12.68;70.42
9009;BME280;62813;51.424;6.762;2023-03-24T07:34:27;99962.56;;;12.77;69.92
9009;BME280;62813;51.424;6.762;2023-03-24T07:36:54;99967.41;;;12.84;69.97
9009;BME280;62813;51.424;6.762;2023-03-24T07:39:21;99967.06;;;12.75;69.14
9009;BME280;62813;51.424;6.762;2023-03-24T07:41:49;99957.72;;;12.86;69.70
9009;BME280;62813;51.424;6.762;2023-03-24T07:44:15;99951.41;;;12.90;68.93
9009;BME280;62813;51.424;6.762;2023-03-24T07:46:42;99960.81;;;12.78;69.01
9009;BME280;62813;51.424;6.762;2023-03-24T07:49:09;99952.31;;;12.89;68.24
9009;BME280;62813;51.424;6.762;2023-03-24T07:51:44;99950.38;;;12.78;68.77
9009;BME280;62813;51.424;6.762;2023-03-24T07:54:11;99953.16;;;12.89;69.79
9009;BME280;62813;51.424;6.762;2023-03-24T07:56:38;99961.97;;;13.01;69.11
9009;BME280;62813;51.424;6.762;2023-03-24T07:59:05;99970.31;;;13.06;68.47
9009;BME280;62813;51.424;6.762;2023-03-24T08:01:33;99974.38;;;13.10;68.13
9009;BME280;62813;51.424;6.762;2023-03-24T08:04:03;99967.91;;;13.03;68.03
9009;BME280;62813;51.424;6.762;2023-03-24T08:06:32;99978.41;;;13.01;67.28
9009;BME280;62813;51.424;6.762;2023-03-24T08:08:58;99991.91;;;13.08;67.78
9009;BME280;62813;51.424;6.762;2023-03-24T08:11:25;99993.31;;;12.99;68.02
9009;BME280;62813;51.424;6.762;2023-03-24T08:13:52;99997.44;;;12.89;67.89
9009;BME280;62813;51.424;6.762;2023-03-24T08:16:19;100002.19;;;12.83;67.97
9009;BME280;62813;51.424;6.762;2023-03-24T08:18:47;100016.13;;;12.82;68.08
9009;BME280;62813;51.424;6.762;2023-03-24T08:21:14;100014.56;;;12.79;68.52
9009;BME280;62813;51.424;6.762;2023-03-24T08:23:41;100009.63;;;12.60;68.75
9009;BME280;62813;51.424;6.762;2023-03-24T08:26:08;100015.59;;;12.62;68.35
9009;BME280;62813;51.424;6.762;2023-03-24T08:28:36;100011.13;;;12.64;69.07
9009;BME280;62813;51.424;6.762;2023-03-24T08:31:03;100008.28;;;12.55;69.90
9009;BME280;62813;51.424;6.762;2023-03-24T08:33:30;100001.91;;;12.44;69.35
9009;BME280;62813;51.424;6.762;2023-03-24T08:35:57;100004.22;;;12.49;68.92
9009;BME280;62813;51.424;6.762;2023-03-24T08:38:27;100010.38;;;12.48;68.82
9009;BME280;62813;51.424;6.762;2023-03-24T08:40:58;100012.44;;;12.57;69.24
9009;BME280;62813;51.424;6.762;2023-03-24T08:43:29;100008.44;;;12.66;69.49
9009;BME280;62813;51.424;6.762;2023-03-24T08:45:57;100008.72;;;12.75;69.55
9009;BME280;62813;51.424;6.762;2023-03-24T08:48:24;100014.19;;;12.85;68.87
9009;BME280;62813;51.424;6.762;2023-03-24T08:50:51;100009.22;;;12.95;67.89
9009;BME280;62813;51.424;6.762;2023-03-24T08:53:19;100004.03;;;12.95;67.12
9009;BME280;62813;51.424;6.762;2023-03-24T08:55:46;100000.53;;;13.08;67.48
9009;BME280;62813;51.424;6.762;2023-03-24T08:58:15;100011.31;;;13.17;67.18
9009;BME280;62813;51.424;6.762;2023-03-24T09:00:44;100016.59;;;13.29;66.69
9009;BME280;62813;51.424;6.762;2023-03-24T09:03:14;100009.94;;;13.38;66.40
9009;BME280;62813;51.424;6.762;2023-03-24T09:05:45;100018.03;;;13.48;66.57
9009;BME280;62813;51.424;6.762;2023-03-24T09:08:15;100017.31;;;13.46;66.47
9009;BME280;62813;51.424;6.762;2023-03-24T09:10:43;100021.25;;;13.51;65.88
9009;BME280;62813;51.424;6.762;2023-03-24T09:13:12;100026.28;;;13.54;65.68
9009;BME280;62813;51.424;6.762;2023-03-24T09:15:39;100033.06;;;13.57;66.07
9009;BME280;62813;51.424;6.762;2023-03-24T09:18:10;100026.97;;;13.44;65.74
9009;BME280;62813;51.424;6.762;2023-03-24T09:20:38;100034.28;;;13.39;65.66
9009;BME280;62813;51.424;6.762;2023-03-24T09:23:04;100025.91;;;13.33;65.35
9009;BME280;62813;51.424;6.762;2023-03-24T09:25:31;100042.75;;;13.28;66.01
9009;BME280;62813;51.424;6.762;2023-03-24T09:27:58;100035.16;;;13.25;65.75
9009;BME280;62813;51.424;6.762;2023-03-24T09:30:26;100034.09;;;13.27;65.42
9009;BME280;62813;51.424;6.762;2023-03-24T09:32:56;100030.34;;;13.46;65.48
9009;BME280;62813;51.424;6.762;2023-03-24T09:35:25;100038.09;;;13.60;64.62
9009;BME280;62813;51.424;6.762;2023-03-24T09:37:55;100018.06;;;13.60;63.76
9009;BME280;62813;51.424;6.762;2023-03-24T09:40:30;100026.53;;;13.64;64.29
9009;BME280;62813;51.424;6.762;2023-03-24T09:43:29;100034.22;;;13.53;64.10
9009;BME280;62813;51.424;6.762;2023-03-24T09:45:58;100034.94;;;13.55;63.86
9009;BME280;62813;51.424;6.762;2023-03-24T09:48:35;100042.38;;;13.61;63.60
9009;BME280;62813;51.424;6.762;2023-03-24T09:51:12;100048.13;;;13.66;63.80
9009;BME280;62813;51.424;6.762;2023-03-24T09:54:02;100042.91;;;13.66;63.81
9009;BME280;62813;51.424;6.762;2023-03-24T09:56:34;100050.38;;;13.58;63.51
9009;BME280;62813;51.424;6.762;2023-03-24T09:59:04;100049.38;;;13.60;63.58
9009;BME280;62813;51.424;6.762;2023-03-24T10:01:34;100051.88;;;13.62;63.07
9009;BME280;62813;51.424;6.762;2023-03-24T10:04:02;100055.75;;;13.69;63.40
9009;BME280;62813;51.424;6.762;2023-03-24T10:06:30;100061.06;;;13.68;62.40
9009;BME280;62813;51.424;6.762;2023-03-24T10:09:20;100059.53;;;13.51;61.87
9009;BME280;62813;51.424;6.762;2023-03-24T10:11:58;100056.44;;;13.58;62.59
9009;BME280;62813;51.424;6.762;2023-03-24T10:20:01;100070.25;;;13.73;61.32
9009;BME280;62813;51.424;6.762;2023-03-24T10:25:20;100093.03;;;13.57;61.32
9009;BME280;62813;51.424;6.762;2023-03-24T10:27:59;100092.50;;;13.52;60.73
9009;BME280;62813;51.424;6.762;2023-03-24T10:30:32;100093.97;;;13.56;60.96
9009;BME280;62813;51.424;6.762;2023-03-24T10:33:00;100090.44;;;13.57;61.68
9009;BME280;62813;51.424;6.762;2023-03-24T10:35:39;100086.09;;;13.70;61.04
9009;BME280;62813;51.424;6.762;2023-03-24T10:38:20;100084.06;;;13.75;61.93
9009;BME280;62813;51.424;6.762;2023-03-24T10:40:50;100077.41;;;13.84;61.49
9009;BME280;62813;51.424;6.762;2023-03-24T10:43:20;100085.72;;;13.76;61.37
9009;BME280;62813;51.424;6.762;2023-03-24T10:45:51;100091.66;;;13.78;59.72
9009;BME280;62813;51.424;6.762;2023-03-24T10:48:44;100083.00;;;13.78;59.89
9009;BME280;62813;51.424;6.762;2023-03-24T10:53:46;100088.16;;;13.65;59.78
9009;BME280;62813;51.424;6.762;2023-03-24T10:56:40;100098.03;;;13.74;60.09
9009;BME280;62813;51.424;6.762;2023-03-24T11:02:20;100093.88;;;13.84;59.84
9009;BME280;62813;51.424;6.762;2023-03-24T11:05:02;100094.81;;;13.83;59.78
9009;BME280;62813;51.424;6.762;2023-03-24T11:07:41;100096.38;;;13.86;58.83
9009;BME280;62813;51.424;6.762;2023-03-24T11:12:37;100089.75;;;13.95;58.60
9009;BME280;62813;51.424;6.762;2023-03-24T11:15:20;100094.34;;;13.91;57.79
9009;BME280;62813;51.424;6.762;2023-03-24T11:17:54;100088.63;;;13.99;58.10
9009;BME280;62813;51.424;6.762;2023-03-24T11:20:36;100088.53;;;14.00;58.45
9009;BME280;62813;51.424;6.762;2023-03-24T11:23:08;100088.34;;;14.16;58.39
9009;BME280;62813;51.424;6.762;2023-03-24T11:25:39;100084.91;;;14.28;58.92
9009;BME280;62813;51.424;6.762;2023-03-24T11:28:14;100084.22;;;14.39;58.37
9009;BME280;62813;51.424;6.762;2023-03-24T11:30:49;100083.47;;;14.50;58.52
9009;BME280;62813;51.424;6.762;2023-03-24T11:33:29;100087.34;;;14.57;57.88
9009;BME280;62813;51.424;6.762;2023-03-24T11:36:07;100077.94;;;14.54;56.92
9009;BME280;62813;51.424;6.762;2023-03-24T11:39:11;100090.47;;;14.36;56.55
9009;BME280;62813;51.424;6.762;2023-03-24T11:41:42;100087.97;;;14.35;57.18
9009;BME280;62813;51.424;6.762;2023-03-24T11:44:23;100091.09;;;14.27;56.56
9009;BME280;62813;51.424;6.762;2023-03-24T11:46:54;100095.38;;;14.28;57.07
9009;BME280;62813;51.424;6.762;2023-03-24T11:49:28;100097.34;;;14.25;57.19
9009;BME280;62813;51.424;6.762;2023-03-24T11:51:56;100090.78;;;14.32;58.04
9009;BME280;62813;51.424;6.762;2023-03-24T11:54:27;100092.16;;;14.37;57.54
9009;BME280;62813;51.424;6.762;2023-03-24T11:57:02;100090.28;;;14.39;57.12
9009;BME280;62813;51.424;6.762;2023-03-24T11:59:48;100092.69;;;14.55;56.38
9009;BME280;62813;51.424;6.762;2023-03-24T12:05:02;100094.25;;;14.70;55.89
9009;BME280;62813;51.424;6.762;2023-03-24T12:07:42;100098.44;;;14.73;55.81
9009;BME280;62813;51.424;6.762;2023-03-24T12:13:11;100077.31;;;14.76;55.70
9009;BME280;62813;51.424;6.762;2023-03-24T12:21:18;100069.19;;;14.68;56.01
9009;BME280;62813;51.424;6.762;2023-03-24T12:23:59;100057.47;;;14.61;55.99
9009;BME280;62813;51.424;6.762;2023-03-24T12:26:33;100053.56;;;14.79;56.59
9009;BME280;62813;51.424;6.762;2023-03-24T12:42:44;100045.78;;;14.54;54.57
9009;BME280;62813;51.424;6.762;2023-03-24T12:45:22;100047.88;;;14.49;54.84
9009;BME280;62813;51.424;6.762;2023-03-24T12:56:18;100039.31;;;14.47;56.34
9009;BME280;62813;51.424;6.762;2023-03-24T12:59:00;100034.50;;;14.66;55.77
9009;BME280;62813;51.424;6.762;2023-03-24T13:01:39;100035.50;;;14.76;55.35
9009;BME280;62813;51.424;6.762;2023-03-24T13:04:28;100048.16;;;14.69;55.11
9009;BME280;62813;51.424;6.762;2023-03-24T13:07:11;100042.53;;;14.63;55.19
9009;BME280;62813;51.424;6.762;2023-03-24T13:12:21;100047.03;;;14.35;54.85
9009;BME280;62813;51.424;6.762;2023-03-24T13:17:35;100038.56;;;14.32;55.38
9009;BME280;62813;51.424;6.762;2023-03-24T13:20:06;100040.78;;;14.38;55.88
9009;BME280;62813;51.424;6.762;2023-03-24T13:22:38;100043.28;;;14.39;55.49
9009;BME280;62813;51.424;6.762;2023-03-24T13:25:18;100051.53;;;14.33;56.64
9009;BME280;62813;51.424;6.762;2023-03-24T13:27:49;100056.22;;;14.28;57.68
9009;BME280;62813;51.424;6.762;2023-03-24T13:33:06;100070.03;;;13.91;64.93
9009;BME280;62813;51.424;6.762;2023-03-24T13:38:32;100035.31;;;14.03;66.18
9009;BME280;62813;51.424;6.762;2023-03-24T13:41:03;100042.38;;;14.01;65.78
9009;BME280;62813;51.424;6.762;2023-03-24T13:43:32;100042.59;;;13.98;66.14
9009;BME280;62813;51.424;6.762;2023-03-24T13:46:01;100039.47;;;14.05;65.81
9009;BME280;62813;51.424;6.762;2023-03-24T13:48:35;100039.09;;;14.24;65.82
9009;BME280;62813;51.424;6.762;2023-03-24T13:51:04;100040.25;;;14.33;66.20
9009;BME280;62813;51.424;6.762;2023-03-24T13:53:55;100042.75;;;14.47;65.09
9009;BME280;62813;51.424;6.762;2023-03-24T14:06:55;100054.16;;;14.46;60.26
9009;BME280;62813;51.424;6.762;2023-03-24T14:09:31;100074.97;;;14.08;62.66
9009;BME280;62813;51.424;6.762;2023-03-24T14:12:21;100079.00;;;13.72;65.57
9009;BME280;62813;51.424;6.762;2023-03-24T14:21:05;100049.84;;;13.26;70.29
9009;BME280;62813;51.424;6.762;2023-03-24T14:26:14;100050.09;;;13.35;69.54
9009;BME280;62813;51.424;6.762;2023-03-24T14:28:58;100042.09;;;13.24;70.41
9009;BME280;62813;51.424;6.762;2023-03-24T14:31:33;100049.00;;;13.25;69.97
9009;BME280;62813;51.424;6.762;2023-03-24T14:34:13;100050.13;;;13.21;69.36
9009;BME280;62813;51.424;6.762;2023-03-24T14:36:43;100061.28;;;13.23;70.26
9009;BME280;62813;51.424;6.762;2023-03-24T14:41:56;100086.00;;;13.03;70.34
9009;BME280;62813;51.424;6.762;2023-03-24T14:47:16;100060.50;;;13.35;73.53
9009;BME280;62813;51.424;6.762;2023-03-24T14:49:45;100050.91;;;13.36;75.49
9009;BME280;62813;51.424;6.762;2023-03-24T14:52:19;100059.53;;;13.51;75.18
9009;BME280;62813;51.424;6.762;2023-03-24T14:55:02;100060.81;;;13.58;73.99
9009;BME280;62813;51.424;6.762;2023-03-24T14:57:35;100059.38;;;13.67;73.33
9009;BME280;62813;51.424;6.762;2023-03-24T15:00:21;100062.13;;;13.78;72.81
9009;BME280;62813;51.424;6.762;2023-03-24T15:02:57;100060.91;;;13.83;71.72
9009;BME280;62813;51.424;6.762;2023-03-24T15:15:59;100044.78;;;13.64;70.36
9009;BME280;62813;51.424;6.762;2023-03-24T15:18:27;100043.72;;;13.54;70.77
9009;BME280;62813;51.424;6.762;2023-03-24T15:20:54;100052.47;;;13.53;70.43
9009;BME280;62813;51.424;6.762;2023-03-24T15:23:26;100040.34;;;13.52;70.85
9009;BME280;62813;51.424;6.762;2023-03-24T15:25:56;100033.84;;;13.45;70.70
9009;BME280;62813;51.424;6.762;2023-03-24T15:28:27;100031.06;;;13.48;71.07
9009;BME280;62813;51.424;6.762;2023-03-24T15:30:56;100026.13;;;13.43;71.72
9009;BME280;62813;51.424;6.762;2023-03-24T15:33:24;100021.56;;;13.47;71.31
9009;BME280;62813;51.424;6.762;2023-03-24T15:35:57;100017.31;;;13.46;71.29
9009;BME280;62813;51.424;6.762;2023-03-24T15:38:29;100027.91;;;13.43;71.65
9009;BME280;62813;51.424;6.762;2023-03-24T15:41:06;100058.16;;;13.45;71.47
9009;BME280;62813;51.424;6.762;2023-03-24T15:43:40;100065.16;;;13.30;73.31
9009;BME280;62813;51.424;6.762;2023-03-24T15:46:23;100077.69;;;13.11;75.59
9009;BME280;62813;51.424;6.762;2023-03-24T15:48:51;100069.69;;;13.00;76.71
9009;BME280;62813;51.424;6.762;2023-03-24T15:51:46;100078.47;;;12.85;78.16
9009;BME280;62813;51.424;6.762;2023-03-24T15:54:22;100072.88;;;12.76;78.90
9009;BME280;62813;51.424;6.762;2023-03-24T15:57:11;100046.84;;;12.62;79.16
9009;BME280;62813;51.424;6.762;2023-03-24T15:59:43;100058.72;;;12.52;79.93